Lamont, Kansas
Current Conditions -  °F | °C
As of 9:53 AM on Monday 26 Jan 2015 (Local Time) from KEMP Reporting Station
Clear Clear  
Wind Chill: 38°   Ceiling: Unl
Heat Index: 44°   Visibility: 10mi
Dew Point: 32°   Wind: 13mph
Humidity: 63%   Direction: 260°W
Pressure: 29.98"   Gusts: NA
Location:  38.11°N, 96.03°W
Report Text: KEMP 261553Z AUTO 26011KT 10SM CLR 07/00 A2998 RMK AO2 SLP163 T00670000
Loading
Personal Weather Stations






























Interactive Weather Map New forecast layout! Learn more

10-Day Weather Forecast

Advertisements
Track Severe Weather on mobile